首页
METAR-TAF:

METAR-TAF

机场 :

Châteaudun, 法国

纬度: 48-03N, 经度: 001-23E, 海拔: 134米

当前天气观测

该预报发布于33分钟前的04:00 UTC
风速7节,风向
温度 8°C
湿度 81%
气压 1032 hPa
能见度10公里或以上
阴天层高于4500英尺
小雨

METAR: LFOC 260400Z AUTO 35007KT 9999 -RA OVC045 08/05 Q1032

时间: 05:33 (04:33 UTC)

预报

该预报发布于14小时和33分钟前的14:00 UTC
预报有效从25日的 15点(UTC)到 26日的 15点(UTC)
风速7节,风向西
能见度10公里或以上
1500米以下无云,无积雨云
成为
从 25日的 17点(UTC)到 25日的 19点(UTC)
风速10节,风向北转西北
成为
从 25日的 23点(UTC)到 26日的 01点(UTC)
多云层高于1000英尺
阴天层高于3000英尺
成为
从 26日的 04点(UTC)到 26日的 06点(UTC)
能見度: 4900
小雨
短暂存在
从 26日的 06点(UTC)到 26日的 12点(UTC)
阴天层高于800英尺

TAF: LFOC 251400Z 2515/2615 26007KT CAVOK BECMG 2517/2519 33010KT BECMG 2523/2601 BKN010 OVC030 BECMG 2604/2606 4900 -RA TEMPO 2606/2612 OVC008

超过4000个机场的气象观测和天气预报(METAR&TAF报告)。

可查询的气象台以黄色和红色小点在地图上表示。

将鼠标移到小点上方,可查看气象台名称。

然后点击查看天气观测和预报。

如需切换地图:点击带黑十字的绿色按钮放大地图;点击带横线的绿色按钮缩小地图;或者点击绿色箭头查看邻近地区的地图。


METAR-TAF: